createdAt,value
2023-05-20T00:00:49.076Z,81.80
2023-05-20T00:03:22.793Z,82.20
2023-05-20T00:05:49.916Z,82.90
2023-05-20T00:08:19.352Z,82.30
2023-05-20T00:10:46.283Z,82.50
2023-05-20T00:13:13.230Z,82.30
2023-05-20T00:15:40.286Z,82.40
2023-05-20T00:18:07.719Z,82.40
2023-05-20T00:20:34.679Z,82.70
2023-05-20T00:23:01.910Z,83.30
2023-05-20T00:25:30.825Z,83.10
2023-05-20T00:27:57.770Z,83.90
2023-05-20T00:30:24.839Z,84.00
2023-05-20T00:32:51.924Z,84.70
2023-05-20T00:35:18.903Z,84.40
2023-05-20T00:37:45.852Z,85.00
2023-05-20T00:40:15.404Z,84.90
2023-05-20T00:42:43.815Z,85.20
2023-05-20T00:45:11.159Z,85.40
2023-05-20T00:47:39.153Z,85.20
2023-05-20T00:50:07.258Z,85.80
2023-05-20T00:52:34.505Z,85.20
2023-05-20T00:55:01.557Z,85.10
2023-05-20T00:57:28.887Z,85.40
2023-05-20T00:59:56.258Z,85.60
2023-05-20T01:02:23.519Z,85.50
2023-05-20T01:04:50.687Z,86.10
2023-05-20T01:07:18.620Z,85.80
2023-05-20T01:09:46.017Z,85.70
2023-05-20T01:12:21.302Z,85.80
2023-05-20T01:15:13.224Z,86.30
2023-05-20T01:17:45.024Z,86.40
2023-05-20T01:20:14.535Z,86.10
2023-05-20T01:22:48.659Z,86.20
2023-05-20T01:25:15.614Z,86.60
2023-05-20T01:27:42.636Z,86.40
2023-05-20T01:30:09.844Z,86.70
2023-05-20T01:32:48.581Z,86.80
2023-05-20T01:35:17.463Z,87.50
2023-05-20T01:37:45.198Z,87.20
2023-05-20T01:40:15.774Z,87.50
2023-05-20T01:42:44.385Z,87.70
2023-05-20T01:45:11.925Z,87.80
2023-05-20T01:47:39.005Z,87.70
2023-05-20T01:50:07.140Z,88.10
2023-05-20T01:52:35.286Z,88.60
2023-05-20T01:55:02.830Z,88.70
2023-05-20T01:57:30.134Z,88.50
2023-05-20T01:59:57.098Z,88.60
2023-05-20T02:02:24.177Z,88.60
2023-05-20T02:04:53.344Z,88.60
2023-05-20T02:07:20.288Z,88.40
2023-05-20T02:09:48.103Z,88.60
2023-05-20T02:12:17.746Z,88.60
2023-05-20T02:14:46.738Z,88.50
2023-05-20T02:17:16.952Z,88.90
2023-05-20T02:19:45.369Z,89.50
2023-05-20T02:22:12.282Z,90.60
2023-05-20T02:24:39.313Z,90.10
2023-05-20T02:27:06.923Z,90.20
2023-05-20T02:29:34.302Z,90.30
2023-05-20T02:32:01.244Z,90.20
2023-05-20T02:34:30.436Z,90.10
2023-05-20T02:36:57.629Z,90.20
2023-05-20T02:39:25.010Z,90.10
2023-05-20T02:41:51.948Z,90.10
2023-05-20T02:44:18.887Z,90.20
2023-05-20T02:46:45.843Z,90.20
2023-05-20T02:49:12.792Z,90.10
2023-05-20T02:51:40.902Z,90.10
2023-05-20T02:54:07.868Z,90.10
2023-05-20T02:56:34.840Z,90.30
2023-05-20T02:59:04.738Z,90.40
2023-05-20T03:01:33.755Z,90.30
2023-05-20T03:04:01.202Z,90.30
2023-05-20T03:06:30.154Z,90.30
2023-05-20T03:08:57.087Z,90.30
2023-05-20T03:11:24.832Z,90.40
2023-05-20T03:13:51.792Z,90.40
2023-05-20T03:16:18.964Z,90.40
2023-05-20T03:18:46.362Z,90.60
2023-05-20T03:21:14.148Z,90.50
2023-05-20T03:23:41.328Z,90.60
2023-05-20T03:26:08.686Z,90.60
2023-05-20T03:28:36.582Z,90.70
2023-05-20T03:31:04.478Z,91.00
2023-05-20T03:33:34.606Z,91.00
2023-05-20T03:36:01.728Z,91.10
2023-05-20T03:38:28.713Z,91.20
2023-05-20T03:40:55.638Z,91.10
2023-05-20T03:43:22.617Z,91.20
2023-05-20T03:45:49.543Z,91.20
2023-05-20T03:48:16.545Z,91.30
2023-05-20T03:50:43.597Z,91.20
2023-05-20T03:53:11.248Z,91.20
2023-05-20T03:55:42.408Z,91.50
2023-05-20T03:58:10.376Z,91.50
2023-05-20T04:00:37.341Z,91.50
2023-05-20T04:03:04.435Z,91.80
2023-05-20T04:05:32.317Z,92.00
2023-05-20T04:08:01.441Z,92.10
2023-05-20T04:10:28.389Z,92.50
2023-05-20T04:12:55.482Z,92.30
2023-05-20T04:15:25.117Z,92.20
2023-05-20T04:17:55.922Z,92.00
2023-05-20T04:20:24.336Z,91.40
2023-05-20T04:22:54.210Z,90.90
2023-05-20T04:25:22.204Z,90.60
2023-05-20T04:27:49.758Z,90.40
2023-05-20T04:30:18.516Z,90.30
2023-05-20T04:32:45.509Z,90.40
2023-05-20T04:35:13.810Z,90.30
2023-05-20T04:37:47.830Z,90.20
2023-05-20T04:40:15.115Z,90.00
2023-05-20T04:42:43.624Z,89.80
2023-05-20T04:45:12.434Z,89.50
2023-05-20T04:47:40.406Z,89.20
2023-05-20T04:50:11.786Z,89.00
2023-05-20T04:52:43.013Z,89.20
2023-05-20T04:55:10.709Z,89.30
2023-05-20T04:57:42.804Z,89.80
2023-05-20T05:00:12.311Z,89.50
2023-05-20T05:02:40.543Z,90.00
2023-05-20T05:05:08.233Z,90.10
2023-05-20T05:07:35.811Z,90.20
2023-05-20T05:10:03.058Z,90.40
2023-05-20T05:12:31.618Z,90.50
2023-05-20T05:14:59.388Z,90.40
2023-05-20T05:17:28.739Z,90.50
2023-05-20T05:19:56.991Z,90.40
2023-05-20T05:22:24.094Z,90.30
2023-05-20T05:24:52.307Z,90.20
2023-05-20T05:27:19.273Z,90.20
2023-05-20T05:29:46.243Z,89.90
2023-05-20T05:32:13.288Z,89.60
2023-05-20T05:34:40.908Z,89.90
2023-05-20T05:37:07.850Z,89.80
2023-05-20T05:39:37.576Z,90.20
2023-05-20T05:42:05.481Z,90.20
2023-05-20T05:44:33.511Z,90.10
2023-05-20T05:47:01.032Z,90.00
2023-05-20T05:49:28.217Z,90.00
2023-05-20T05:51:55.258Z,90.30
2023-05-20T05:54:22.260Z,90.30
2023-05-20T05:56:51.918Z,90.20
2023-05-20T05:59:19.870Z,90.50
2023-05-20T06:01:46.971Z,90.30
2023-05-20T06:04:15.427Z,90.40
2023-05-20T06:06:42.618Z,90.40
2023-05-20T06:09:09.622Z,90.40
2023-05-20T06:11:37.121Z,90.20
2023-05-20T06:14:04.133Z,90.00
2023-05-20T06:16:31.489Z,89.80
2023-05-20T06:19:02.642Z,89.80
2023-05-20T06:21:32.548Z,89.70
2023-05-20T06:23:59.495Z,89.80
2023-05-20T06:26:26.783Z,89.50
2023-05-20T06:28:53.874Z,89.30
2023-05-20T06:31:21.066Z,89.10
2023-05-20T06:33:48.549Z,88.70
2023-05-20T06:36:17.378Z,88.60
2023-05-20T06:38:44.400Z,88.60
2023-05-20T06:41:13.633Z,88.20
2023-05-20T06:43:40.754Z,88.30
2023-05-20T06:46:29.362Z,88.50
2023-05-20T06:49:02.163Z,88.40
2023-05-20T06:51:29.805Z,88.60
2023-05-20T06:53:56.976Z,88.30
2023-05-20T06:56:24.237Z,87.90
2023-05-20T06:58:51.197Z,87.80
2023-05-20T07:01:18.507Z,88.20
2023-05-20T07:03:46.492Z,88.30
2023-05-20T07:06:13.746Z,88.30
2023-05-20T07:08:41.129Z,88.20
2023-05-20T07:11:08.935Z,88.10
2023-05-20T07:13:35.989Z,88.00
2023-05-20T07:16:02.934Z,87.80
2023-05-20T07:18:30.072Z,87.70
2023-05-20T07:20:57.747Z,88.00
2023-05-20T07:23:43.382Z,87.90
2023-05-20T07:26:10.563Z,87.70
2023-05-20T07:28:39.139Z,88.10
2023-05-20T07:31:06.341Z,88.20
2023-05-20T07:33:39.282Z,88.00
2023-05-20T07:36:07.963Z,88.00
2023-05-20T07:38:36.315Z,87.80
2023-05-20T07:41:07.034Z,88.00
2023-05-20T07:43:34.549Z,87.80
2023-05-20T07:46:03.625Z,87.90
2023-05-20T07:48:30.636Z,87.90
2023-05-20T07:50:59.189Z,87.90
2023-05-20T07:53:27.008Z,87.70
2023-05-20T07:55:54.499Z,88.20
2023-05-20T07:58:21.683Z,87.30
2023-05-20T08:00:49.998Z,87.20
2023-05-20T08:03:17.393Z,86.90
2023-05-20T08:05:54.875Z,86.70
2023-05-20T08:08:22.288Z,86.70
2023-05-20T08:10:57.030Z,86.50
2023-05-20T08:13:25.924Z,86.50
2023-05-20T08:15:54.794Z,86.30
2023-05-20T08:18:22.574Z,86.40
2023-05-20T08:20:50.254Z,86.60
2023-05-20T08:23:17.326Z,86.60
2023-05-20T08:25:46.805Z,86.10
2023-05-20T08:28:14.221Z,86.10
2023-05-20T08:30:41.740Z,86.30
2023-05-20T08:33:08.968Z,86.20
2023-05-20T08:35:37.781Z,86.30
2023-05-20T08:38:05.389Z,86.40
2023-05-20T08:40:35.063Z,85.70
2023-05-20T08:43:02.468Z,85.70
2023-05-20T08:45:33.602Z,85.40
2023-05-20T08:48:05.865Z,85.40
2023-05-20T08:50:33.052Z,85.20
2023-05-20T08:53:00.453Z,85.20
2023-05-20T08:55:43.882Z,85.20
2023-05-20T08:58:10.988Z,85.20
2023-05-20T09:00:38.429Z,84.90
2023-05-20T09:03:05.566Z,84.70
2023-05-20T09:05:32.928Z,84.80
2023-05-20T09:08:10.853Z,84.60
2023-05-20T09:10:40.027Z,84.50
2023-05-20T09:13:08.482Z,84.50
2023-05-20T09:15:37.112Z,84.20
2023-05-20T09:18:07.635Z,84.30
2023-05-20T09:20:41.202Z,84.00
2023-05-20T09:23:10.135Z,84.00
2023-05-20T09:25:37.903Z,83.60
2023-05-20T09:28:08.829Z,83.20
2023-05-20T09:30:36.102Z,82.70
2023-05-20T09:33:05.767Z,82.60
2023-05-20T09:35:39.125Z,82.20
2023-05-20T09:38:10.018Z,81.60
2023-05-20T09:40:41.166Z,81.40
2023-05-20T09:43:08.788Z,81.60
2023-05-20T09:45:36.132Z,81.90
2023-05-20T09:48:05.890Z,81.60
2023-05-20T09:50:33.266Z,81.20
2023-05-20T09:53:04.080Z,80.90
2023-05-20T09:55:31.328Z,80.90
2023-05-20T09:58:02.661Z,80.30
2023-05-20T10:00:30.133Z,80.30
2023-05-20T10:02:57.716Z,80.40
2023-05-20T10:05:39.895Z,80.20
2023-05-20T10:08:57.289Z,80.10
2023-05-20T10:11:56.565Z,80.60
2023-05-20T10:14:44.087Z,80.60
2023-05-20T10:17:46.780Z,80.10
2023-05-20T10:20:13.902Z,80.70
2023-05-20T10:22:41.032Z,79.90
2023-05-20T10:25:13.011Z,79.80
2023-05-20T10:27:49.082Z,79.40
2023-05-20T10:30:23.579Z,79.00
2023-05-20T10:32:57.451Z,78.70
2023-05-20T10:35:29.276Z,78.70
2023-05-20T10:38:13.134Z,78.50
2023-05-20T10:40:40.780Z,78.10
2023-05-20T10:43:13.262Z,78.20
2023-05-20T10:45:51.816Z,78.30
2023-05-20T10:48:29.216Z,78.30
2023-05-20T10:50:58.516Z,78.70
2023-05-20T10:53:34.049Z,78.60
2023-05-20T10:56:01.720Z,78.50
2023-05-20T10:58:37.562Z,78.40
2023-05-20T11:01:04.782Z,78.20
2023-05-20T11:03:33.328Z,78.00
2023-05-20T11:06:00.260Z,77.70
2023-05-20T11:08:33.287Z,77.60
2023-05-20T11:11:00.278Z,77.70
2023-05-20T11:13:27.476Z,78.00
2023-05-20T11:15:55.478Z,77.40
2023-05-20T11:18:22.469Z,77.50
2023-05-20T11:20:49.562Z,76.80
2023-05-20T11:23:16.690Z,76.60
2023-05-20T11:25:43.697Z,76.70
2023-05-20T11:28:14.381Z,76.60
2023-05-20T11:30:43.340Z,76.90
2023-05-20T11:33:14.090Z,76.70
2023-05-20T11:35:52.202Z,76.60
2023-05-20T11:38:20.322Z,75.90
2023-05-20T11:40:55.120Z,76.20
2023-05-20T11:43:24.224Z,76.60
2023-05-20T11:45:59.876Z,76.50
2023-05-20T11:48:27.303Z,76.30
2023-05-20T11:50:56.214Z,76.60
2023-05-20T11:53:24.655Z,76.90
2023-05-20T11:55:55.644Z,77.20
2023-05-20T11:58:29.895Z,77.30
2023-05-20T12:01:05.628Z,77.60
2023-05-20T12:03:44.132Z,77.60
2023-05-20T12:06:13.530Z,77.40
2023-05-20T12:08:40.574Z,77.40
2023-05-20T12:11:07.549Z,77.50
2023-05-20T12:13:35.460Z,77.60
2023-05-20T12:16:02.849Z,77.60
2023-05-20T12:18:29.818Z,77.50
2023-05-20T12:20:56.757Z,77.40
2023-05-20T12:23:23.714Z,77.50
2023-05-20T12:25:50.826Z,77.50
2023-05-20T12:28:17.803Z,77.40
2023-05-20T12:30:44.733Z,77.40
2023-05-20T12:33:11.660Z,77.10
2023-05-20T12:35:43.574Z,77.10
2023-05-20T12:38:11.142Z,77.20
2023-05-20T12:40:38.569Z,77.20
2023-05-20T12:43:06.240Z,77.50
2023-05-20T12:45:33.189Z,78.10
2023-05-20T12:48:00.394Z,77.70
2023-05-20T12:50:27.817Z,77.60
2023-05-20T12:52:54.934Z,77.10
2023-05-20T12:55:21.969Z,76.60
2023-05-20T12:57:48.947Z,77.10
2023-05-20T13:00:16.627Z,76.80
2023-05-20T13:02:44.126Z,76.70
2023-05-20T13:05:11.543Z,76.80
2023-05-20T13:07:38.818Z,76.70
2023-05-20T13:10:07.387Z,77.00
2023-05-20T13:12:35.137Z,76.50
2023-05-20T13:15:02.205Z,76.20
2023-05-20T13:17:29.388Z,76.10
2023-05-20T13:19:56.487Z,76.60
2023-05-20T13:22:23.611Z,76.10
2023-05-20T13:24:50.566Z,76.20
2023-05-20T13:27:17.493Z,75.90
2023-05-20T13:29:44.599Z,76.40
2023-05-20T13:32:11.573Z,76.60
2023-05-20T13:34:39.331Z,76.00
2023-05-20T13:37:06.924Z,76.20
2023-05-20T13:39:33.849Z,76.60
2023-05-20T13:42:00.909Z,76.50
2023-05-20T13:44:27.857Z,76.10
2023-05-20T13:46:54.847Z,75.80
2023-05-20T13:49:22.264Z,76.00
2023-05-20T13:51:49.185Z,75.10
2023-05-20T13:54:16.149Z,75.20
2023-05-20T13:56:43.182Z,74.40
2023-05-20T13:59:10.163Z,74.30
2023-05-20T14:01:40.468Z,74.60
2023-05-20T14:04:08.271Z,73.90
2023-05-20T14:06:35.294Z,74.00
2023-05-20T14:09:03.173Z,73.50
2023-05-20T14:11:30.124Z,73.60
2023-05-20T14:13:57.047Z,72.80
2023-05-20T14:16:24.130Z,72.50
2023-05-20T14:18:51.124Z,72.30
2023-05-20T14:21:19.167Z,72.10
2023-05-20T14:23:46.718Z,72.40
2023-05-20T14:26:13.696Z,72.40
2023-05-20T14:28:40.779Z,72.60
2023-05-20T14:31:09.676Z,72.50
2023-05-20T14:33:36.962Z,71.90
2023-05-20T14:36:04.251Z,72.10
2023-05-20T14:38:31.301Z,71.80
2023-05-20T14:40:58.232Z,71.30
2023-05-20T14:43:25.821Z,71.30
2023-05-20T14:45:52.946Z,71.50
2023-05-20T14:48:19.985Z,72.10
2023-05-20T14:50:48.934Z,72.00
2023-05-20T14:53:17.384Z,71.50
2023-05-20T14:55:44.339Z,72.30
2023-05-20T14:58:11.674Z,71.90
2023-05-20T15:00:39.576Z,72.10
2023-05-20T15:03:06.780Z,72.40
2023-05-20T15:05:33.962Z,71.60
2023-05-20T15:08:01.044Z,72.10
2023-05-20T15:10:28.069Z,72.50
2023-05-20T15:12:55.216Z,72.80
2023-05-20T15:15:22.305Z,72.70
2023-05-20T15:17:49.281Z,72.60
2023-05-20T15:20:16.370Z,72.80
2023-05-20T15:22:47.708Z,72.60
2023-05-20T15:25:15.314Z,72.50
2023-05-20T15:27:42.502Z,72.90
2023-05-20T15:30:10.548Z,72.80
2023-05-20T15:32:37.674Z,72.40
2023-05-20T15:35:05.355Z,72.30
2023-05-20T15:37:32.311Z,71.40
2023-05-20T15:39:59.273Z,71.90
2023-05-20T15:42:26.869Z,72.00
2023-05-20T15:44:53.790Z,72.10
2023-05-20T15:47:21.404Z,72.00
2023-05-20T15:49:48.489Z,71.50
2023-05-20T15:52:15.527Z,71.10
2023-05-20T15:54:42.587Z,71.00
2023-05-20T15:57:10.101Z,71.10
2023-05-20T15:59:37.074Z,70.70
2023-05-20T16:02:04.178Z,70.70
2023-05-20T16:04:32.514Z,70.40
2023-05-20T16:06:59.664Z,70.60
2023-05-20T16:09:26.621Z,70.20
2023-05-20T16:11:53.564Z,71.10
2023-05-20T16:14:20.516Z,70.50
2023-05-20T16:16:47.482Z,69.90
2023-05-20T16:19:14.620Z,70.10
2023-05-20T16:21:41.572Z,70.10
2023-05-20T16:24:08.509Z,70.40
2023-05-20T16:26:35.433Z,70.50
2023-05-20T16:29:02.416Z,70.60
2023-05-20T16:31:29.413Z,70.60
2023-05-20T16:33:56.511Z,70.70
2023-05-20T16:36:23.565Z,70.20
2023-05-20T16:38:50.567Z,70.10
2023-05-20T16:41:17.519Z,69.90
2023-05-20T16:43:44.599Z,68.40
2023-05-20T16:46:14.302Z,66.80
2023-05-20T16:48:42.580Z,66.00
2023-05-20T16:51:09.515Z,64.60
2023-05-20T16:53:36.486Z,63.10
2023-05-20T16:56:06.023Z,63.40
2023-05-20T16:58:32.971Z,62.60
2023-05-20T17:01:00.017Z,62.00
2023-05-20T17:03:26.974Z,61.20
2023-05-20T17:05:53.962Z,61.00
2023-05-20T17:08:20.964Z,61.20
2023-05-20T17:10:51.237Z,61.60
2023-05-20T17:13:19.405Z,62.20
2023-05-20T17:15:46.322Z,62.60
2023-05-20T17:18:13.337Z,62.70
2023-05-20T17:20:40.446Z,62.80
2023-05-20T17:23:07.352Z,62.40
2023-05-20T17:25:34.291Z,62.60
2023-05-20T17:28:01.299Z,62.80
2023-05-20T17:30:28.318Z,63.00
2023-05-20T17:32:57.375Z,63.10
2023-05-20T17:35:28.060Z,63.40
2023-05-20T17:37:55.207Z,63.80
2023-05-20T17:40:22.300Z,64.00
2023-05-20T17:42:49.242Z,64.40
2023-05-20T17:45:16.279Z,64.90
2023-05-20T17:47:43.232Z,65.10
2023-05-20T17:50:10.898Z,65.50
2023-05-20T17:52:37.853Z,65.60
2023-05-20T17:55:06.590Z,65.80
2023-05-20T17:57:33.786Z,66.80
2023-05-20T18:00:00.728Z,66.20
2023-05-20T18:02:27.720Z,66.40
2023-05-20T18:04:54.751Z,66.50
2023-05-20T18:07:21.691Z,66.80
2023-05-20T18:09:48.637Z,67.00
2023-05-20T18:12:15.572Z,67.10
2023-05-20T18:14:42.486Z,67.60
2023-05-20T18:17:09.609Z,67.80
2023-05-20T18:19:36.541Z,68.10
2023-05-20T18:22:03.494Z,68.50
2023-05-20T18:24:30.649Z,68.60
2023-05-20T18:26:57.633Z,69.00
2023-05-20T18:29:26.752Z,69.10
2023-05-20T18:31:53.771Z,69.40
2023-05-20T18:34:20.747Z,69.60
2023-05-20T18:36:47.728Z,69.90
2023-05-20T18:39:20.171Z,69.80
2023-05-20T18:41:50.001Z,70.10
2023-05-20T18:44:22.812Z,70.20
2023-05-20T18:46:49.774Z,70.60
2023-05-20T18:49:16.737Z,70.80
2023-05-20T18:51:43.691Z,70.80
2023-05-20T18:54:10.698Z,70.90
2023-05-20T18:56:37.849Z,71.40
2023-05-20T18:59:04.783Z,71.40
2023-05-20T19:01:33.865Z,71.40
2023-05-20T19:04:01.087Z,71.70
2023-05-20T19:06:28.206Z,72.40
2023-05-20T19:08:55.221Z,72.30
2023-05-20T19:11:22.169Z,72.70
2023-05-20T19:13:49.127Z,73.10
2023-05-20T19:16:16.435Z,73.50
2023-05-20T19:18:43.497Z,73.90
2023-05-20T19:21:10.698Z,73.90
2023-05-20T19:23:37.647Z,74.00
2023-05-20T19:26:04.766Z,74.50
2023-05-20T19:28:31.672Z,74.60
2023-05-20T19:30:58.602Z,75.20
2023-05-20T19:33:25.611Z,75.40
2023-05-20T19:35:52.597Z,75.80
2023-05-20T19:38:19.580Z,76.20
2023-05-20T19:40:47.679Z,76.40
2023-05-20T19:43:14.803Z,76.50
2023-05-20T19:45:41.788Z,76.60
2023-05-20T19:48:09.585Z,77.20
2023-05-20T19:50:37.331Z,77.40
2023-05-20T19:53:07.195Z,78.10
2023-05-20T19:55:36.249Z,78.40
2023-05-20T19:58:03.575Z,78.90
2023-05-20T20:00:30.923Z,78.70
2023-05-20T20:02:59.053Z,79.10
2023-05-20T20:05:26.566Z,79.80
2023-05-20T20:07:53.590Z,79.70
2023-05-20T20:10:20.605Z,80.10
2023-05-20T20:12:47.586Z,80.60
2023-05-20T20:15:14.780Z,80.50
2023-05-20T20:17:46.021Z,80.40
2023-05-20T20:20:16.743Z,80.90
2023-05-20T20:22:43.678Z,81.10
2023-05-20T20:25:13.808Z,81.40
2023-05-20T20:27:43.870Z,82.70
2023-05-20T20:30:15.100Z,81.50
2023-05-20T20:32:42.732Z,82.10
2023-05-20T20:35:10.812Z,82.00
2023-05-20T20:37:38.378Z,81.90
2023-05-20T20:40:13.391Z,82.10
2023-05-20T20:42:42.387Z,81.80
2023-05-20T20:45:12.272Z,81.80
2023-05-20T20:47:40.985Z,81.70
2023-05-20T20:50:08.928Z,82.40
2023-05-20T20:52:36.428Z,81.80
2023-05-20T20:55:04.505Z,82.00
2023-05-20T20:57:32.035Z,82.00
2023-05-20T20:59:58.973Z,82.10
2023-05-20T21:02:26.229Z,82.10
2023-05-20T21:04:53.179Z,82.00
2023-05-20T21:07:20.142Z,82.10
2023-05-20T21:09:47.133Z,82.40
2023-05-20T21:12:14.124Z,82.40
2023-05-20T21:14:42.899Z,83.00
2023-05-20T21:17:09.959Z,82.60
2023-05-20T21:19:36.919Z,82.60
2023-05-20T21:22:03.863Z,82.70
2023-05-20T21:24:30.883Z,83.00
2023-05-20T21:26:57.797Z,83.30
2023-05-20T21:29:25.239Z,83.60
2023-05-20T21:31:52.273Z,83.60
2023-05-20T21:34:19.186Z,84.20
2023-05-20T21:36:46.102Z,84.10
2023-05-20T21:39:13.014Z,84.10
2023-05-20T21:41:40.306Z,84.40
2023-05-20T21:44:07.327Z,84.40
2023-05-20T21:46:34.269Z,84.60
2023-05-20T21:49:01.211Z,84.60
2023-05-20T21:51:28.154Z,84.80
2023-05-20T21:53:55.069Z,84.80
2023-05-20T21:56:22.589Z,85.00
2023-05-20T21:58:49.526Z,85.20
2023-05-20T22:01:16.542Z,85.00
2023-05-20T22:03:46.702Z,85.30
2023-05-20T22:06:16.047Z,85.30
2023-05-20T22:08:43.763Z,85.30
2023-05-20T22:11:10.698Z,85.30
2023-05-20T22:13:41.432Z,86.20
2023-05-20T22:16:09.308Z,85.60
2023-05-20T22:18:36.266Z,85.90
2023-05-20T22:21:03.934Z,86.00
2023-05-20T22:23:31.043Z,86.50
2023-05-20T22:25:58.245Z,86.60
2023-05-20T22:28:26.169Z,86.70
2023-05-20T22:30:53.102Z,86.90
2023-05-20T22:33:20.057Z,87.10
2023-05-20T22:35:46.958Z,87.40
2023-05-20T22:38:13.895Z,87.50
2023-05-20T22:40:41.033Z,87.40
2023-05-20T22:43:07.967Z,87.60
2023-05-20T22:45:35.332Z,87.80
2023-05-20T22:48:03.679Z,88.00
2023-05-20T22:50:30.783Z,88.00
2023-05-20T22:52:57.682Z,88.10
2023-05-20T22:55:24.587Z,88.20
2023-05-20T22:57:51.637Z,88.20
2023-05-20T23:00:18.790Z,88.30
2023-05-20T23:02:49.553Z,88.70
2023-05-20T23:05:16.750Z,88.80
2023-05-20T23:07:44.786Z,88.80
2023-05-20T23:10:11.797Z,88.80
2023-05-20T23:12:38.737Z,88.90
2023-05-20T23:15:06.665Z,89.00
2023-05-20T23:17:33.625Z,89.30
2023-05-20T23:20:00.637Z,89.30
2023-05-20T23:22:27.582Z,89.80
2023-05-20T23:24:54.475Z,90.00
2023-05-20T23:27:21.397Z,90.10
2023-05-20T23:29:48.298Z,90.10
2023-05-20T23:32:15.353Z,90.20
2023-05-20T23:34:43.481Z,90.30
2023-05-20T23:37:10.425Z,90.10
2023-05-20T23:39:37.329Z,90.10
2023-05-20T23:42:05.146Z,90.10
2023-05-20T23:44:32.042Z,90.30
2023-05-20T23:46:58.963Z,90.40
2023-05-20T23:49:26.998Z,90.40
2023-05-20T23:51:54.134Z,90.60
2023-05-20T23:54:21.201Z,90.70
2023-05-20T23:56:48.206Z,90.80
2023-05-20T23:59:15.369Z,90.90
